createdAt,value
2023-04-08T00:01:42.602Z,5.40
2023-04-08T00:04:09.850Z,5.30
2023-04-08T00:06:37.214Z,5.40
2023-04-08T00:09:04.069Z,5.40
2023-04-08T00:11:30.788Z,5.40
2023-04-08T00:13:57.416Z,5.40
2023-04-08T00:16:24.063Z,5.40
2023-04-08T00:18:51.226Z,5.40
2023-04-08T00:21:20.458Z,5.40
2023-04-08T00:23:47.315Z,5.40
2023-04-08T00:26:13.915Z,5.40
2023-04-08T00:28:41.119Z,5.40
2023-04-08T00:31:07.810Z,5.40
2023-04-08T00:33:34.577Z,5.30
2023-04-08T00:36:01.236Z,5.30
2023-04-08T00:38:27.908Z,5.20
2023-04-08T00:40:54.516Z,5.30
2023-04-08T00:43:21.238Z,5.30
2023-04-08T00:45:48.185Z,5.20
2023-04-08T00:48:14.811Z,5.20
2023-04-08T00:50:42.958Z,5.20
2023-04-08T00:53:09.991Z,5.20
2023-04-08T00:55:36.598Z,5.10
2023-04-08T00:58:03.278Z,5.10
2023-04-08T01:00:30.222Z,5.00
2023-04-08T01:03:23.577Z,5.00
2023-04-08T01:05:56.562Z,5.00
2023-04-08T01:08:23.266Z,4.90
2023-04-08T01:10:50.902Z,4.90
2023-04-08T01:13:18.118Z,5.00
2023-04-08T01:15:44.762Z,5.00
2023-04-08T01:18:12.541Z,5.00
2023-04-08T01:20:40.303Z,5.10
2023-04-08T01:23:14.674Z,5.10
2023-04-08T01:26:03.196Z,5.20
2023-04-08T01:28:30.511Z,5.20
2023-04-08T01:30:58.211Z,5.20
2023-04-08T01:33:24.961Z,5.30
2023-04-08T01:35:51.983Z,5.30
2023-04-08T01:38:19.812Z,5.30
2023-04-08T01:40:46.988Z,5.30
2023-04-08T01:43:14.767Z,5.20
2023-04-08T01:45:42.395Z,5.20
2023-04-08T01:48:09.021Z,5.20
2023-04-08T01:50:35.677Z,5.20
2023-04-08T01:53:02.279Z,5.20
2023-04-08T01:55:28.922Z,5.10
2023-04-08T01:57:56.243Z,5.10
2023-04-08T02:00:25.909Z,5.10
2023-04-08T02:02:53.231Z,5.30
2023-04-08T02:05:20.296Z,5.40
2023-04-08T02:07:49.968Z,5.50
2023-04-08T02:10:16.757Z,5.50
2023-04-08T02:12:44.312Z,5.60
2023-04-08T02:15:12.192Z,5.60
2023-04-08T02:17:54.997Z,5.60
2023-04-08T02:20:32.039Z,5.60
2023-04-08T02:23:10.945Z,5.60
2023-04-08T02:25:38.719Z,5.60
2023-04-08T02:28:06.874Z,5.50
2023-04-08T02:30:33.477Z,5.50
2023-04-08T02:33:00.198Z,5.50
2023-04-08T02:35:26.924Z,5.50
2023-04-08T02:37:53.594Z,5.50
2023-04-08T02:40:23.895Z,5.60
2023-04-08T02:42:50.534Z,5.50
2023-04-08T02:45:17.633Z,5.60
2023-04-08T02:47:44.311Z,5.70
2023-04-08T02:50:11.103Z,5.70
2023-04-08T02:52:37.698Z,5.70
2023-04-08T02:55:06.610Z,5.60
2023-04-08T02:57:33.209Z,5.70
2023-04-08T02:59:59.827Z,5.70
2023-04-08T03:02:26.567Z,5.70
2023-04-08T03:04:53.325Z,5.70
2023-04-08T03:07:19.927Z,5.70
2023-04-08T03:09:46.743Z,5.70
2023-04-08T03:12:13.341Z,5.70
2023-04-08T03:14:39.982Z,5.60
2023-04-08T03:17:06.582Z,5.60
2023-04-08T03:19:33.202Z,5.50
2023-04-08T03:21:59.797Z,5.50
2023-04-08T03:24:26.407Z,5.50
2023-04-08T03:26:53.007Z,5.40
2023-04-08T03:29:19.641Z,5.40
2023-04-08T03:31:46.470Z,5.50
2023-04-08T03:34:13.231Z,5.50
2023-04-08T03:36:39.826Z,5.50
2023-04-08T03:39:06.543Z,5.60
2023-04-08T03:41:33.141Z,5.70
2023-04-08T03:43:59.785Z,5.70
2023-04-08T03:46:26.398Z,5.70
2023-04-08T03:48:53.084Z,5.70
2023-04-08T03:51:19.668Z,5.70
2023-04-08T03:53:46.277Z,5.60
2023-04-08T03:56:12.871Z,5.60
2023-04-08T03:58:39.546Z,5.60
2023-04-08T04:01:06.165Z,5.60
2023-04-08T04:03:32.892Z,5.60
2023-04-08T04:05:59.581Z,5.60
2023-04-08T04:08:26.192Z,5.60
2023-04-08T04:10:52.791Z,5.60
2023-04-08T04:13:19.661Z,5.60
2023-04-08T04:15:46.335Z,5.60
2023-04-08T04:18:12.970Z,5.60
2023-04-08T04:20:42.601Z,5.60
2023-04-08T04:23:09.532Z,5.60
2023-04-08T04:25:36.167Z,5.70
2023-04-08T04:28:03.500Z,5.70
2023-04-08T04:30:30.276Z,5.60
2023-04-08T04:32:57.665Z,5.60
2023-04-08T04:35:24.441Z,5.60
2023-04-08T04:37:51.879Z,5.60
2023-04-08T04:40:18.558Z,5.60
2023-04-08T04:42:45.299Z,5.60
2023-04-08T04:45:12.435Z,5.60
2023-04-08T04:47:39.102Z,5.60
2023-04-08T04:50:06.967Z,5.60
2023-04-08T04:52:33.563Z,5.60
2023-04-08T04:55:00.395Z,5.60
2023-04-08T04:57:27.002Z,5.60
2023-04-08T04:59:53.665Z,5.70
2023-04-08T05:02:20.554Z,5.60
2023-04-08T05:04:47.260Z,5.60
2023-04-08T05:07:13.868Z,5.60
2023-04-08T05:09:40.584Z,5.60
2023-04-08T05:12:07.190Z,5.70
2023-04-08T05:14:33.908Z,5.70
2023-04-08T05:17:00.825Z,5.60
2023-04-08T05:19:27.447Z,5.60
2023-04-08T05:21:54.060Z,5.70
2023-04-08T05:24:20.740Z,5.60
2023-04-08T05:26:48.788Z,5.60
2023-04-08T05:29:15.461Z,5.60
2023-04-08T05:31:42.105Z,5.60
2023-04-08T05:34:08.754Z,5.60
2023-04-08T05:36:35.350Z,5.60
2023-04-08T05:39:03.312Z,5.60
2023-04-08T05:41:30.226Z,5.70
2023-04-08T05:43:56.901Z,5.70
2023-04-08T05:46:23.546Z,5.70
2023-04-08T05:48:50.817Z,5.70
2023-04-08T05:51:17.955Z,5.80
2023-04-08T05:53:47.696Z,5.70
2023-04-08T05:56:14.353Z,5.80
2023-04-08T05:58:41.020Z,5.80
2023-04-08T06:01:07.911Z,5.80
2023-04-08T06:03:34.610Z,5.90
2023-04-08T06:06:01.446Z,5.90
2023-04-08T06:08:28.074Z,5.90
2023-04-08T06:10:54.720Z,5.90
2023-04-08T06:13:21.969Z,5.90
2023-04-08T06:15:51.424Z,5.90
2023-04-08T06:18:18.031Z,6.00
2023-04-08T06:20:44.702Z,6.00
2023-04-08T06:23:11.321Z,6.00
2023-04-08T06:25:37.983Z,6.20
2023-04-08T06:28:04.616Z,6.40
2023-04-08T06:30:31.241Z,6.40
2023-04-08T06:32:58.003Z,6.60
2023-04-08T06:35:24.889Z,6.60
2023-04-08T06:37:51.581Z,6.70
2023-04-08T06:40:19.247Z,6.90
2023-04-08T06:42:46.158Z,7.10
2023-04-08T06:45:12.819Z,7.10
2023-04-08T06:47:39.484Z,7.00
2023-04-08T06:50:06.955Z,6.90
2023-04-08T06:52:33.663Z,6.90
2023-04-08T06:55:00.281Z,6.80
2023-04-08T06:57:27.080Z,7.10
2023-04-08T06:59:53.705Z,7.40
2023-04-08T07:02:20.394Z,7.40
2023-04-08T07:04:47.093Z,7.50
2023-04-08T07:07:13.772Z,7.50
2023-04-08T07:09:43.299Z,7.40
2023-04-08T07:12:10.194Z,7.30
2023-04-08T07:14:36.802Z,7.30
2023-04-08T07:17:03.526Z,7.50
2023-04-08T07:19:30.936Z,7.50
2023-04-08T07:21:57.906Z,7.30
2023-04-08T07:24:24.648Z,7.30
2023-04-08T07:26:51.430Z,7.30
2023-04-08T07:29:18.232Z,7.30
2023-04-08T07:31:44.893Z,7.40
2023-04-08T07:34:11.766Z,7.60
2023-04-08T07:36:38.482Z,7.80
2023-04-08T07:39:05.311Z,7.80
2023-04-08T07:41:31.947Z,8.00
2023-04-08T07:43:58.536Z,7.90
2023-04-08T07:46:25.275Z,8.00
2023-04-08T07:48:52.206Z,7.90
2023-04-08T07:51:20.389Z,7.80
2023-04-08T07:53:47.678Z,7.90
2023-04-08T07:56:14.961Z,7.80
2023-04-08T07:58:41.938Z,7.80
2023-04-08T08:01:19.713Z,7.60
2023-04-08T08:03:47.854Z,7.90
2023-04-08T08:06:15.129Z,7.70
2023-04-08T08:08:41.787Z,7.60
2023-04-08T08:11:08.648Z,7.40
2023-04-08T08:13:35.334Z,7.50
2023-04-08T08:16:02.092Z,7.50
2023-04-08T08:18:28.746Z,7.50
2023-04-08T08:20:55.386Z,7.60
2023-04-08T08:23:22.021Z,7.60
2023-04-08T08:25:48.640Z,7.50
2023-04-08T08:28:15.256Z,7.50
2023-04-08T08:30:41.904Z,7.50
2023-04-08T08:33:08.609Z,7.50
2023-04-08T08:35:35.406Z,7.40
2023-04-08T08:38:02.032Z,7.40
2023-04-08T08:40:28.649Z,7.50
2023-04-08T08:42:55.368Z,7.40
2023-04-08T08:45:22.107Z,7.40
2023-04-08T08:47:51.008Z,7.40
2023-04-08T08:50:18.525Z,7.40
2023-04-08T08:52:51.836Z,7.40
2023-04-08T08:55:39.547Z,7.40
2023-04-08T08:58:11.149Z,7.40
2023-04-08T09:00:45.061Z,7.40
2023-04-08T09:03:30.046Z,7.40
2023-04-08T09:05:57.786Z,7.30
2023-04-08T09:08:26.546Z,7.30
2023-04-08T09:10:54.271Z,7.20
2023-04-08T09:13:23.439Z,7.20
2023-04-08T09:16:10.395Z,7.30
2023-04-08T09:18:41.141Z,7.30
2023-04-08T09:21:07.831Z,7.30
2023-04-08T09:23:38.870Z,7.30
2023-04-08T09:26:12.643Z,7.30
2023-04-08T09:28:39.837Z,7.40
2023-04-08T09:31:22.332Z,7.50
2023-04-08T09:33:50.388Z,7.50
2023-04-08T09:36:17.447Z,7.60
2023-04-08T09:38:44.378Z,7.60
2023-04-08T09:41:14.931Z,7.80
2023-04-08T09:43:49.693Z,7.80
2023-04-08T09:46:18.248Z,7.90
2023-04-08T09:48:57.380Z,7.90
2023-04-08T09:51:24.169Z,8.10
2023-04-08T09:53:59.455Z,8.20
2023-04-08T09:56:27.042Z,8.20
2023-04-08T09:58:59.542Z,8.20
2023-04-08T10:01:30.588Z,8.20
2023-04-08T10:03:57.530Z,8.20
2023-04-08T10:06:28.953Z,8.20
2023-04-08T10:08:56.447Z,8.20
2023-04-08T10:11:23.230Z,8.10
2023-04-08T10:13:50.194Z,8.00
2023-04-08T10:16:17.494Z,8.00
2023-04-08T10:18:44.535Z,8.00
2023-04-08T10:21:31.977Z,8.10
2023-04-08T10:24:06.168Z,8.20
2023-04-08T10:26:43.328Z,8.30
2023-04-08T10:29:33.134Z,8.20
2023-04-08T10:31:59.921Z,8.30
2023-04-08T10:34:27.162Z,8.30
2023-04-08T10:36:55.702Z,8.30
2023-04-08T10:39:22.376Z,8.30
2023-04-08T10:41:50.112Z,8.40
2023-04-08T10:44:21.224Z,8.40
2023-04-08T10:46:48.424Z,8.40
2023-04-08T10:49:15.674Z,8.40
2023-04-08T10:51:44.033Z,8.40
2023-04-08T10:54:15.194Z,8.40
2023-04-08T10:56:49.413Z,8.40
2023-04-08T10:59:17.102Z,8.40
2023-04-08T11:01:45.180Z,8.40
2023-04-08T11:04:13.561Z,8.30
2023-04-08T11:06:42.190Z,8.30
2023-04-08T11:09:08.939Z,8.40
2023-04-08T11:11:36.032Z,8.40
2023-04-08T11:14:03.193Z,8.40
2023-04-08T11:16:29.878Z,8.50
2023-04-08T11:18:56.875Z,8.50
2023-04-08T11:21:23.963Z,8.50
2023-04-08T11:23:51.968Z,8.60
2023-04-08T11:26:21.914Z,8.80
2023-04-08T11:28:52.070Z,9.00
2023-04-08T11:31:20.648Z,9.20
2023-04-08T11:33:49.745Z,9.50
2023-04-08T11:36:17.961Z,9.80
2023-04-08T11:38:44.672Z,9.80
2023-04-08T11:41:11.997Z,10.00
2023-04-08T11:43:40.995Z,10.40
2023-04-08T11:46:11.450Z,11.00
2023-04-08T11:48:38.606Z,11.30
2023-04-08T11:51:12.583Z,11.40
2023-04-08T11:53:39.217Z,11.20
2023-04-08T11:56:19.033Z,11.10
2023-04-08T11:58:46.455Z,11.20
2023-04-08T12:01:13.438Z,11.30
2023-04-08T12:03:40.300Z,11.40
2023-04-08T12:06:08.756Z,11.30
2023-04-08T12:08:35.465Z,11.20
2023-04-08T12:11:16.689Z,11.20
2023-04-08T12:13:46.351Z,10.90
2023-04-08T12:16:14.303Z,10.90
2023-04-08T12:18:41.046Z,10.70
2023-04-08T12:21:07.708Z,10.50
2023-04-08T12:23:34.342Z,10.40
2023-04-08T12:26:00.947Z,10.40
2023-04-08T12:28:27.592Z,10.40
2023-04-08T12:30:54.515Z,10.50
2023-04-08T12:33:21.301Z,10.60
2023-04-08T12:35:47.959Z,10.70
2023-04-08T12:38:14.631Z,10.90
2023-04-08T12:40:41.234Z,11.00
2023-04-08T12:43:07.856Z,11.00
2023-04-08T12:45:34.447Z,11.10
2023-04-08T12:48:01.429Z,11.10
2023-04-08T12:50:28.260Z,11.10
2023-04-08T12:52:54.875Z,11.00
2023-04-08T12:55:24.831Z,11.00
2023-04-08T12:57:52.308Z,10.90
2023-04-08T13:00:19.475Z,10.90
2023-04-08T13:02:46.669Z,10.90
2023-04-08T13:05:13.423Z,10.90
2023-04-08T13:07:40.474Z,10.80
2023-04-08T13:10:08.434Z,10.70
2023-04-08T13:12:35.065Z,10.80
2023-04-08T13:15:01.720Z,10.90
2023-04-08T13:17:28.587Z,11.00
2023-04-08T13:19:55.521Z,11.20
2023-04-08T13:22:22.142Z,11.40
2023-04-08T13:24:48.794Z,11.60
2023-04-08T13:27:15.786Z,11.70
2023-04-08T13:29:42.426Z,11.90
2023-04-08T13:32:09.140Z,12.10
2023-04-08T13:34:35.766Z,12.10
2023-04-08T13:37:03.147Z,12.20
2023-04-08T13:39:29.770Z,12.20
2023-04-08T13:41:56.888Z,12.10
2023-04-08T13:44:23.638Z,11.90
2023-04-08T13:46:50.762Z,11.90
2023-04-08T13:49:17.460Z,12.00
2023-04-08T13:51:44.066Z,12.20
2023-04-08T13:54:10.766Z,12.40
2023-04-08T13:56:37.417Z,12.50
2023-04-08T13:59:04.079Z,12.50
2023-04-08T14:01:30.762Z,12.60
2023-04-08T14:03:57.453Z,12.60
2023-04-08T14:06:24.117Z,12.60
2023-04-08T14:08:50.997Z,12.60
2023-04-08T14:11:18.029Z,12.70
2023-04-08T14:13:44.666Z,12.60
2023-04-08T14:16:11.304Z,12.30
2023-04-08T14:18:38.451Z,12.20
2023-04-08T14:21:05.736Z,12.10
2023-04-08T14:23:32.393Z,12.60
2023-04-08T14:26:01.323Z,12.90
2023-04-08T14:28:27.974Z,12.90
2023-04-08T14:30:54.956Z,12.70
2023-04-08T14:33:21.653Z,12.80
2023-04-08T14:35:48.251Z,12.90
2023-04-08T14:38:14.908Z,13.10
2023-04-08T14:40:41.811Z,13.30
2023-04-08T14:43:08.429Z,13.30
2023-04-08T14:45:35.033Z,13.30
2023-04-08T14:48:02.034Z,13.30
2023-04-08T14:50:28.799Z,13.30
2023-04-08T14:52:55.673Z,13.10
2023-04-08T14:55:22.657Z,13.00
2023-04-08T14:57:49.389Z,13.00
2023-04-08T15:00:16.344Z,13.00
2023-04-08T15:02:43.021Z,12.90
2023-04-08T15:05:09.796Z,12.90
2023-04-08T15:07:36.713Z,12.90
2023-04-08T15:10:03.368Z,12.80
2023-04-08T15:12:30.058Z,12.70
2023-04-08T15:14:56.693Z,12.50
2023-04-08T15:17:23.387Z,12.40
2023-04-08T15:19:50.054Z,12.20
2023-04-08T15:22:16.652Z,12.00
2023-04-08T15:24:43.273Z,11.70
2023-04-08T15:27:09.885Z,11.70
2023-04-08T15:29:36.702Z,11.80
2023-04-08T15:32:03.393Z,11.80
2023-04-08T15:34:29.998Z,11.70
2023-04-08T15:36:57.174Z,11.60
2023-04-08T15:39:23.855Z,11.60
2023-04-08T15:41:50.466Z,11.60
2023-04-08T15:44:17.423Z,11.60
2023-04-08T15:46:44.094Z,11.50
2023-04-08T15:49:10.714Z,11.40
2023-04-08T15:51:37.365Z,11.40
2023-04-08T15:54:03.990Z,11.40
2023-04-08T15:56:31.096Z,11.40
2023-04-08T15:58:58.451Z,11.40
2023-04-08T16:01:25.105Z,11.20
2023-04-08T16:03:51.900Z,11.10
2023-04-08T16:06:18.587Z,10.90
2023-04-08T16:08:46.881Z,10.90
2023-04-08T16:11:13.656Z,10.80
2023-04-08T16:13:42.325Z,10.70
2023-04-08T16:16:09.032Z,10.70
2023-04-08T16:18:35.747Z,10.70
2023-04-08T16:21:05.594Z,10.70
2023-04-08T16:23:32.255Z,10.70
2023-04-08T16:25:58.874Z,10.70
2023-04-08T16:28:27.521Z,10.60
2023-04-08T16:30:54.273Z,10.70
2023-04-08T16:33:23.989Z,10.60
2023-04-08T16:35:50.657Z,10.60
2023-04-08T16:38:17.384Z,10.50
2023-04-08T16:40:43.999Z,10.50
2023-04-08T16:43:11.448Z,10.40
2023-04-08T16:45:40.288Z,10.30
2023-04-08T16:48:07.101Z,10.20
2023-04-08T16:50:33.709Z,10.10
2023-04-08T16:53:00.573Z,10.10
2023-04-08T16:55:27.218Z,10.10
2023-04-08T16:57:57.788Z,10.10
2023-04-08T17:00:24.614Z,10.10
2023-04-08T17:02:53.146Z,10.00
2023-04-08T17:05:19.940Z,9.90
2023-04-08T17:07:46.534Z,9.90
2023-04-08T17:10:13.640Z,9.80
2023-04-08T17:12:40.565Z,9.80
2023-04-08T17:15:08.138Z,9.60
2023-04-08T17:17:34.791Z,9.60
2023-04-08T17:20:01.919Z,9.50
2023-04-08T17:22:28.522Z,9.50
2023-04-08T17:24:55.245Z,9.40
2023-04-08T17:27:22.113Z,9.30
2023-04-08T17:29:48.782Z,9.20
2023-04-08T17:32:15.612Z,9.20
2023-04-08T17:34:42.527Z,9.10
2023-04-08T17:37:10.235Z,9.00
2023-04-08T17:39:40.600Z,9.00
2023-04-08T17:42:10.513Z,9.00
2023-04-08T17:44:37.565Z,8.90
2023-04-08T17:47:04.748Z,8.90
2023-04-08T17:49:31.584Z,8.80
2023-04-08T17:51:58.246Z,8.70
2023-04-08T17:54:25.019Z,8.70
2023-04-08T17:56:51.687Z,8.70
2023-04-08T17:59:18.336Z,8.70
2023-04-08T18:01:45.044Z,8.60
2023-04-08T18:04:12.494Z,8.60
2023-04-08T18:06:39.498Z,8.60
2023-04-08T18:09:06.219Z,8.60
2023-04-08T18:11:32.829Z,8.60
2023-04-08T18:14:02.949Z,8.60
2023-04-08T18:16:29.641Z,8.50
2023-04-08T18:18:56.290Z,8.50
2023-04-08T18:21:22.929Z,8.50
2023-04-08T18:23:52.683Z,8.50
2023-04-08T18:26:19.632Z,8.50
2023-04-08T18:28:46.276Z,8.40
2023-04-08T18:31:12.982Z,8.40
2023-04-08T18:33:39.827Z,8.40
2023-04-08T18:36:12.327Z,8.40
2023-04-08T18:38:40.796Z,8.50
2023-04-08T18:41:07.678Z,8.50
2023-04-08T18:43:34.368Z,8.50
2023-04-08T18:46:01.063Z,8.50
2023-04-08T18:48:27.714Z,8.40
2023-04-08T18:50:54.344Z,8.40
2023-04-08T18:53:21.884Z,8.40
2023-04-08T18:55:48.522Z,8.40
2023-04-08T18:58:15.136Z,8.40
2023-04-08T19:00:42.012Z,8.40
2023-04-08T19:03:10.288Z,8.40
2023-04-08T19:05:37.828Z,8.50
2023-04-08T19:08:04.920Z,8.40
2023-04-08T19:10:32.176Z,8.40
2023-04-08T19:12:59.184Z,8.40
2023-04-08T19:15:26.447Z,8.30
2023-04-08T19:17:53.114Z,8.30
2023-04-08T19:20:19.931Z,8.30
2023-04-08T19:22:48.259Z,8.30
2023-04-08T19:25:14.993Z,8.30
2023-04-08T19:27:41.589Z,8.20
2023-04-08T19:30:08.530Z,8.20
2023-04-08T19:32:35.429Z,8.10
2023-04-08T19:35:02.149Z,8.10
2023-04-08T19:37:28.770Z,8.10
2023-04-08T19:39:55.403Z,8.00
2023-04-08T19:42:22.360Z,8.00
2023-04-08T19:44:49.212Z,8.00
2023-04-08T19:47:17.500Z,8.00
2023-04-08T19:49:44.105Z,7.90
2023-04-08T19:52:10.871Z,7.90
2023-04-08T19:54:37.762Z,7.90
2023-04-08T19:57:08.038Z,7.80
2023-04-08T19:59:35.271Z,7.80
2023-04-08T20:02:03.730Z,7.70
2023-04-08T20:04:31.001Z,7.70
2023-04-08T20:06:57.838Z,7.70
2023-04-08T20:09:24.453Z,7.80
2023-04-08T20:11:51.051Z,7.80
2023-04-08T20:14:17.708Z,7.80
2023-04-08T20:16:44.668Z,7.80
2023-04-08T20:19:11.294Z,7.80
2023-04-08T20:21:38.646Z,7.80
2023-04-08T20:24:05.890Z,7.70
2023-04-08T20:26:32.482Z,7.80
2023-04-08T20:28:59.405Z,7.70
2023-04-08T20:31:26.679Z,7.80
2023-04-08T20:33:53.442Z,7.70
2023-04-08T20:36:20.653Z,7.70
2023-04-08T20:38:47.252Z,7.70
2023-04-08T20:41:18.903Z,7.80
2023-04-08T20:43:45.766Z,7.70
2023-04-08T20:46:12.363Z,7.80
2023-04-08T20:48:39.316Z,7.80
2023-04-08T20:51:06.042Z,7.80
2023-04-08T20:53:34.394Z,7.70
2023-04-08T20:56:01.741Z,7.70
2023-04-08T20:58:28.418Z,7.70
2023-04-08T21:00:55.085Z,7.80
2023-04-08T21:03:21.984Z,7.80
2023-04-08T21:05:49.365Z,7.80
2023-04-08T21:08:16.018Z,7.70
2023-04-08T21:10:42.625Z,7.80
2023-04-08T21:13:09.231Z,7.70
2023-04-08T21:15:35.841Z,7.70
2023-04-08T21:18:03.033Z,7.70
2023-04-08T21:20:29.819Z,7.70
2023-04-08T21:22:56.552Z,7.70
2023-04-08T21:25:23.198Z,7.70
2023-04-08T21:27:49.857Z,7.60
2023-04-08T21:30:17.843Z,7.60
2023-04-08T21:32:44.491Z,7.60
2023-04-08T21:35:11.257Z,7.60
2023-04-08T21:37:37.886Z,7.50
2023-04-08T21:40:04.868Z,7.50
2023-04-08T21:42:32.813Z,7.60
2023-04-08T21:44:59.817Z,7.60
2023-04-08T21:47:26.440Z,7.60
2023-04-08T21:49:53.133Z,7.60
2023-04-08T21:52:19.802Z,7.60
2023-04-08T21:54:49.754Z,7.60
2023-04-08T21:57:16.373Z,7.50
2023-04-08T21:59:42.982Z,7.50
2023-04-08T22:02:11.441Z,7.50
2023-04-08T22:04:38.392Z,7.50
2023-04-08T22:07:05.000Z,7.50
2023-04-08T22:09:31.609Z,7.50
2023-04-08T22:11:58.204Z,7.40
2023-04-08T22:14:24.805Z,7.40
2023-04-08T22:16:51.448Z,7.40
2023-04-08T22:19:18.043Z,7.40
2023-04-08T22:21:44.682Z,7.40
2023-04-08T22:24:11.281Z,7.30
2023-04-08T22:26:37.894Z,7.30
2023-04-08T22:29:04.526Z,7.30
2023-04-08T22:31:31.527Z,7.30
2023-04-08T22:33:58.114Z,7.20
2023-04-08T22:36:24.752Z,7.20
2023-04-08T22:38:51.539Z,7.20
2023-04-08T22:41:19.258Z,7.20
2023-04-08T22:43:46.286Z,7.20
2023-04-08T22:46:14.286Z,7.20
2023-04-08T22:48:44.624Z,7.20
2023-04-08T22:51:11.322Z,7.20
2023-04-08T22:53:38.056Z,7.20
2023-04-08T22:56:04.849Z,7.20
2023-04-08T22:58:31.461Z,7.20
2023-04-08T23:00:58.413Z,7.20
2023-04-08T23:03:25.087Z,7.20
2023-04-08T23:05:51.773Z,7.20
2023-04-08T23:08:18.428Z,7.10
2023-04-08T23:10:45.212Z,7.10
2023-04-08T23:13:13.891Z,7.10
2023-04-08T23:15:40.766Z,7.20
2023-04-08T23:18:07.458Z,7.10
2023-04-08T23:20:35.486Z,7.10
2023-04-08T23:23:03.337Z,7.10
2023-04-08T23:25:30.167Z,7.10
2023-04-08T23:27:56.772Z,7.10
2023-04-08T23:30:23.380Z,7.10
2023-04-08T23:32:50.061Z,7.10
2023-04-08T23:35:16.717Z,7.10
2023-04-08T23:37:43.316Z,7.10
2023-04-08T23:40:10.179Z,7.00
2023-04-08T23:42:36.776Z,7.00
2023-04-08T23:45:03.838Z,7.00
2023-04-08T23:47:31.128Z,6.90
2023-04-08T23:49:57.834Z,6.90
2023-04-08T23:52:24.468Z,6.90
2023-04-08T23:54:51.110Z,6.90
2023-04-08T23:57:20.171Z,6.80
2023-04-08T23:59:47.389Z,6.80
